Time;durP1;ratioP1;P1;durP2;ratioP2;P2;SDS_P1;SDS_P2;PMS_P1;PMS_P2;Temp;Humidity;BMP_temperature;BMP_pressure;BME280_temperature;BME280_humidity;BME280_pressure;Samples;Min_cycle;Max_cycle;Signal;HPM_P1;HPM_P2
2023/03/27 00:00:46;;;;;;;4.18;3.63;;;;;;;;;;4973121;28;19922;-63
2023/03/27 00:03:13;;;;;;;3.50;3.30;;;;;;;;;;4969427;28;20134;-63
2023/03/27 00:05:39;;;;;;;4.63;3.13;;;;;;;;;;4970188;28;20113;-63
2023/03/27 00:08:09;;;;;;;3.90;3.50;;;;;;;;;;4971674;28;20153;-62
2023/03/27 00:10:36;;;;;;;3.03;2.92;;;;;;;;;;4971191;28;20470;-63
2023/03/27 00:13:04;;;;;;;2.80;2.70;;;;;;;;;;4977552;28;20442;-63
2023/03/27 00:15:30;;;;;;;3.42;3.13;;;;;;;;;;4978726;28;20537;-62
2023/03/27 00:17:57;;;;;;;3.20;3.00;;;;;;;;;;4967426;28;20499;-63
2023/03/27 00:20:25;;;;;;;3.05;2.85;;;;;;;;;;4968441;28;20044;-63
2023/03/27 00:22:59;;;;;;;3.58;3.28;;;;;;;;;;4971964;28;20039;-62
2023/03/27 00:25:26;;;;;;;3.30;3.20;;;;;;;;;;4986704;28;20050;-62
2023/03/27 00:27:55;;;;;;;3.42;3.15;;;;;;;;;;4970325;28;20137;-61
2023/03/27 00:30:22;;;;;;;3.20;3.00;;;;;;;;;;4968741;28;20035;-63
2023/03/27 00:32:48;;;;;;;3.60;3.38;;;;;;;;;;4970959;28;20058;-62
2023/03/27 00:35:14;;;;;;;3.45;3.25;;;;;;;;;;4969696;28;20073;-63
2023/03/27 00:37:40;;;;;;;3.80;3.60;;;;;;;;;;4968705;28;20046;-63
2023/03/27 00:40:17;;;;;;;3.50;3.30;;;;;;;;;;4968520;28;20039;-62
2023/03/27 00:42:45;;;;;;;4.50;3.63;;;;;;;;;;4972716;28;20038;-63
2023/03/27 00:45:22;;;;;;;4.30;4.05;;;;;;;;;;4968869;28;20061;-63
2023/03/27 00:47:53;;;;;;;4.85;4.28;;;;;;;;;;4969834;28;20035;-63
2023/03/27 00:50:24;;;;;;;4.70;4.30;;;;;;;;;;4963294;28;20043;-63
2023/03/27 00:52:55;;;;;;;5.13;4.60;;;;;;;;;;4983980;28;20478;-63
2023/03/27 00:55:22;;;;;;;5.20;4.70;;;;;;;;;;4971577;28;20042;-63
2023/03/27 00:57:52;;;;;;;4.78;4.47;;;;;;;;;;4968152;28;20121;-64
2023/03/27 01:00:19;;;;;;;5.32;4.93;;;;;;;;;;4967210;28;20043;-63
2023/03/27 01:02:48;;;;;;;5.18;4.78;;;;;;;;;;4969007;28;20069;-63
2023/03/27 01:05:15;;;;;;;4.63;4.30;;;;;;;;;;4961258;28;20538;-63
2023/03/27 01:07:43;;;;;;;4.57;4.28;;;;;;;;;;4970049;28;20041;-64
2023/03/27 01:10:11;;;;;;;4.68;4.25;;;;;;;;;;4969621;28;20058;-63
2023/03/27 01:12:42;;;;;;;3.28;3.17;;;;;;;;;;4970352;28;20110;-62
2023/03/27 01:15:27;;;;;;;3.45;3.35;;;;;;;;;;4982574;28;20046;-64
2023/03/27 01:18:14;;;;;;;4.35;3.30;;;;;;;;;;4970577;28;20383;-63
2023/03/27 01:21:05;;;;;;;3.42;3.22;;;;;;;;;;4985798;28;20133;-64
2023/03/27 01:24:07;;;;;;;3.25;3.05;;;;;;;;;;4966098;28;20121;-62
2023/03/27 01:26:56;;;;;;;3.00;2.90;;;;;;;;;;4986740;28;20487;-64
2023/03/27 01:29:45;;;;;;;3.67;3.38;;;;;;;;;;4968264;28;20045;-63
2023/03/27 01:32:38;;;;;;;3.63;3.42;;;;;;;;;;4983322;28;20770;-64
2023/03/27 01:35:10;;;;;;;3.33;3.13;;;;;;;;;;4967784;28;20142;-64
2023/03/27 01:37:46;;;;;;;2.92;2.83;;;;;;;;;;4968195;28;20031;-63
2023/03/27 01:40:16;;;;;;;3.45;3.20;;;;;;;;;;4967049;28;20046;-64
2023/03/27 01:43:00;;;;;;;3.05;2.95;;;;;;;;;;4966187;28;20086;-63
2023/03/27 01:45:37;;;;;;;3.20;3.00;;;;;;;;;;4967605;28;20043;-63
2023/03/27 01:48:14;;;;;;;3.20;3.00;;;;;;;;;;4985041;28;20031;-64
2023/03/27 01:50:57;;;;;;;3.08;2.90;;;;;;;;;;4964374;28;20422;-64
2023/03/27 01:53:26;;;;;;;3.50;3.30;;;;;;;;;;4985872;28;20034;-63
2023/03/27 01:56:17;;;;;;;3.22;3.03;;;;;;;;;;4973197;28;20498;-64
2023/03/27 01:58:48;;;;;;;3.53;3.17;;;;;;;;;;4986952;28;20047;-65
2023/03/27 02:01:29;;;;;;;3.15;3.00;;;;;;;;;;4985831;28;20043;-64
2023/03/27 02:03:57;;;;;;;3.67;3.47;;;;;;;;;;4973015;28;20038;-63
2023/03/27 02:06:28;;;;;;;3.33;3.13;;;;;;;;;;4978177;28;20078;-64
2023/03/27 02:09:21;;;;;;;4.22;3.83;;;;;;;;;;4985626;28;20043;-64
2023/03/27 02:11:59;;;;;;;3.83;3.63;;;;;;;;;;4970111;28;20061;-64
2023/03/27 02:14:34;;;;;;;3.72;3.53;;;;;;;;;;4970815;28;20852;-62
2023/03/27 02:17:08;;;;;;;4.82;4.43;;;;;;;;;;4989353;28;20828;-63
2023/03/27 02:19:56;;;;;;;4.28;3.97;;;;;;;;;;4971540;28;20441;-62
2023/03/27 02:22:22;;;;;;;3.60;3.40;;;;;;;;;;4985453;28;20045;-63
2023/03/27 02:24:54;;;;;;;3.72;3.42;;;;;;;;;;4986748;28;20041;-63
2023/03/27 02:27:27;;;;;;;4.07;3.67;;;;;;;;;;4968907;28;20074;-62
2023/03/27 02:30:01;;;;;;;4.82;4.43;;;;;;;;;;4972508;28;20041;-62
2023/03/27 02:32:45;;;;;;;4.53;4.22;;;;;;;;;;4958500;28;20045;-63
2023/03/27 02:35:26;;;;;;;4.75;4.35;;;;;;;;;;4974352;28;20054;-63
2023/03/27 02:38:01;;;;;;;4.63;4.32;;;;;;;;;;4973447;28;20153;-65
2023/03/27 02:41:16;;;;;;;5.80;5.20;;;;;;;;;;4970416;28;20066;-62
2023/03/27 02:43:54;;;;;;;7.15;5.82;;;;;;;;;;4970543;28;20110;-64
2023/03/27 02:46:37;;;;;;;13.85;9.95;;;;;;;;;;4974033;28;20593;-63
2023/03/27 02:49:09;;;;;;;16.13;8.85;;;;;;;;;;4973959;28;20047;-64
2023/03/27 02:51:47;;;;;;;10.98;9.43;;;;;;;;;;4971118;28;20113;-64
2023/03/27 02:54:23;;;;;;;14.45;9.25;;;;;;;;;;4972845;28;20545;-64
2023/03/27 02:56:54;;;;;;;16.65;10.82;;;;;;;;;;4971468;28;20045;-60
2023/03/27 02:59:34;;;;;;;20.88;10.68;;;;;;;;;;4971492;28;20062;-65
2023/03/27 03:02:05;;;;;;;21.55;10.70;;;;;;;;;;4971217;28;20530;-64
2023/03/27 03:05:19;;;;;;;16.45;10.35;;;;;;;;;;4976508;28;20039;-65
2023/03/27 03:07:47;;;;;;;19.83;9.20;;;;;;;;;;4990721;28;20661;-65
2023/03/27 03:10:14;;;;;;;17.90;9.98;;;;;;;;;;4990264;28;21141;-65
2023/03/27 03:12:41;;;;;;;20.77;11.55;;;;;;;;;;4992182;28;20419;-65
2023/03/27 03:15:07;;;;;;;20.75;9.90;;;;;;;;;;4997373;28;20440;-65
2023/03/27 03:17:34;;;;;;;22.25;9.57;;;;;;;;;;4989045;28;20034;-64
2023/03/27 03:19:59;;;;;;;14.07;7.13;;;;;;;;;;4993613;28;20100;-65
2023/03/27 03:22:26;;;;;;;18.50;10.38;;;;;;;;;;4991604;28;20523;-65
2023/03/27 03:24:52;;;;;;;26.25;12.18;;;;;;;;;;4990727;28;20040;-64
2023/03/27 03:27:21;;;;;;;18.73;10.85;;;;;;;;;;4989617;28;20038;-65
2023/03/27 03:30:08;;;;;;;16.85;9.57;;;;;;;;;;4992319;28;20046;-65
2023/03/27 03:32:42;;;;;;;17.45;9.60;;;;;;;;;;4991342;28;20562;-65
2023/03/27 03:35:08;;;;;;;26.55;12.38;;;;;;;;;;4989699;28;20050;-65
2023/03/27 03:37:37;;;;;;;18.33;9.50;;;;;;;;;;4991078;28;20042;-65
2023/03/27 03:40:10;;;;;;;26.07;11.40;;;;;;;;;;4991024;28;20186;-66
2023/03/27 03:42:43;;;;;;;28.08;12.45;;;;;;;;;;4975755;28;20102;-65
2023/03/27 03:45:10;;;;;;;19.65;10.20;;;;;;;;;;4967763;28;20062;-65
2023/03/27 03:47:35;;;;;;;27.98;12.85;;;;;;;;;;4979851;28;20034;-65
2023/03/27 03:50:01;;;;;;;19.40;10.32;;;;;;;;;;4966544;28;20443;-65
2023/03/27 03:52:29;;;;;;;18.60;9.38;;;;;;;;;;4969035;28;20034;-65
2023/03/27 03:54:55;;;;;;;21.73;10.75;;;;;;;;;;4970671;28;20046;-64
2023/03/27 03:57:21;;;;;;;22.27;10.18;;;;;;;;;;4970791;28;20042;-64
2023/03/27 03:59:59;;;;;;;19.20;8.20;;;;;;;;;;4967002;28;20042;-65
2023/03/27 04:02:44;;;;;;;17.23;9.85;;;;;;;;;;4973302;28;20114;-65
2023/03/27 04:05:12;;;;;;;21.75;9.35;;;;;;;;;;4970687;28;20038;-66
2023/03/27 04:07:39;;;;;;;20.23;9.15;;;;;;;;;;4967573;28;20046;-65
2023/03/27 04:10:32;;;;;;;15.95;9.32;;;;;;;;;;4967937;28;20081;-65
2023/03/27 04:13:01;;;;;;;;;;;;;;;;;;4987579;28;20055;-64
2023/03/27 04:15:35;;;;;;;16.67;8.65;;;;;;;;;;4967356;28;19940;-64
2023/03/27 04:18:15;;;;;;;15.88;8.52;;;;;;;;;;4974003;28;20042;-65
2023/03/27 04:20:40;;;;;;;16.58;8.98;;;;;;;;;;4968155;28;20066;-65
2023/03/27 04:23:09;;;;;;;24.23;9.73;;;;;;;;;;4967024;28;20125;-64
2023/03/27 04:25:38;;;;;;;17.77;8.77;;;;;;;;;;4967106;28;20042;-64
2023/03/27 04:28:05;;;;;;;19.83;8.60;;;;;;;;;;4968263;28;20514;-64
2023/03/27 04:30:38;;;;;;;16.27;7.82;;;;;;;;;;4965546;28;20056;-65
2023/03/27 04:33:19;;;;;;;19.98;8.18;;;;;;;;;;4969834;28;20041;-64
2023/03/27 04:36:02;;;;;;;14.73;8.23;;;;;;;;;;4981841;28;20681;-64
2023/03/27 04:38:37;;;;;;;16.13;8.32;;;;;;;;;;4971102;28;20088;-64
2023/03/27 04:41:03;;;;;;;10.75;7.18;;;;;;;;;;4968321;28;20145;-64
2023/03/27 04:43:28;;;;;;;23.30;8.88;;;;;;;;;;4971706;28;20039;-63
2023/03/27 04:45:54;;;;;;;22.33;8.32;;;;;;;;;;4968690;28;20038;-64
2023/03/27 04:48:20;;;;;;;17.63;7.78;;;;;;;;;;4967962;28;20039;-65
2023/03/27 04:50:50;;;;;;;15.30;7.22;;;;;;;;;;4982748;28;20129;-64
2023/03/27 04:53:29;;;;;;;17.85;7.50;;;;;;;;;;4969669;28;20113;-64
2023/03/27 04:55:56;;;;;;;17.05;6.95;;;;;;;;;;4970101;28;20035;-64
2023/03/27 04:58:25;;;;;;;18.02;7.35;;;;;;;;;;4966305;28;20022;-64
2023/03/27 05:00:54;;;;;;;19.10;6.80;;;;;;;;;;4964502;28;20121;-64
2023/03/27 05:03:52;;;;;;;12.75;6.10;;;;;;;;;;4965784;28;20047;-64
2023/03/27 05:06:32;;;;;;;14.15;6.38;;;;;;;;;;4965851;28;20027;-64
2023/03/27 05:09:00;;;;;;;20.67;6.95;;;;;;;;;;4965603;28;20045;-64
2023/03/27 05:11:29;;;;;;;13.52;5.35;;;;;;;;;;4967006;28;20502;-64
2023/03/27 05:13:55;;;;;;;20.67;6.70;;;;;;;;;;4967334;28;20065;-64
2023/03/27 05:16:25;;;;;;;16.77;6.47;;;;;;;;;;4982143;28;20173;-64
2023/03/27 05:18:54;;;;;;;21.25;6.35;;;;;;;;;;4982467;28;20035;-64
2023/03/27 05:21:20;;;;;;;17.00;5.68;;;;;;;;;;4968419;28;20049;-64
2023/03/27 05:23:46;;;;;;;14.95;5.28;;;;;;;;;;4966667;28;20088;-63
2023/03/27 05:26:12;;;;;;;11.48;5.72;;;;;;;;;;4964930;28;20034;-64
2023/03/27 05:28:54;;;;;;;13.95;5.32;;;;;;;;;;4966565;28;20172;-64
2023/03/27 05:31:21;;;;;;;18.45;5.15;;;;;;;;;;4966835;28;20046;-63
2023/03/27 05:33:53;;;;;;;14.65;5.18;;;;;;;;;;4965054;28;20453;-64
2023/03/27 05:36:21;;;;;;;13.40;5.15;;;;;;;;;;4966784;28;20125;-63
2023/03/27 05:38:47;;;;;;;10.32;5.53;;;;;;;;;;4966371;28;20034;-64
2023/03/27 05:41:19;;;;;;;8.13;4.60;;;;;;;;;;4982876;28;20066;-64
2023/03/27 05:43:49;;;;;;;15.80;4.80;;;;;;;;;;4964736;28;20035;-63
2023/03/27 05:46:14;;;;;;;9.23;4.60;;;;;;;;;;4966465;28;20050;-64
2023/03/27 05:48:47;;;;;;;8.50;4.22;;;;;;;;;;4966588;28;20122;-63
2023/03/27 05:51:13;;;;;;;13.60;4.75;;;;;;;;;;4965521;28;20130;-63
2023/03/27 05:53:38;;;;;;;10.88;4.68;;;;;;;;;;4966647;28;20043;-63
2023/03/27 05:56:15;;;;;;;12.57;4.68;;;;;;;;;;4982770;28;20558;-63
2023/03/27 05:58:52;;;;;;;20.08;5.55;;;;;;;;;;4965811;28;20502;-63
2023/03/27 06:01:17;;;;;;;9.77;4.53;;;;;;;;;;4965900;28;20047;-62
2023/03/27 06:03:43;;;;;;;8.52;4.50;;;;;;;;;;4965409;28;20030;-64
2023/03/27 06:06:15;;;;;;;13.55;6.18;;;;;;;;;;4966698;28;20043;-62
2023/03/27 06:08:43;;;;;;;7.50;3.85;;;;;;;;;;4964720;28;20081;-62
2023/03/27 06:11:11;;;;;;;11.00;4.80;;;;;;;;;;4966317;28;20184;-63
2023/03/27 06:13:43;;;;;;;7.53;4.10;;;;;;;;;;4966700;28;20035;-62
2023/03/27 06:16:13;;;;;;;12.55;4.50;;;;;;;;;;4966764;28;20043;-64
2023/03/27 06:18:51;;;;;;;15.18;5.28;;;;;;;;;;4965948;28;20109;-62
2023/03/27 06:21:19;;;;;;;7.60;3.95;;;;;;;;;;4966641;28;20042;-62
2023/03/27 06:23:46;;;;;;;7.43;4.40;;;;;;;;;;4966060;28;20031;-63
2023/03/27 06:26:14;;;;;;;10.40;4.40;;;;;;;;;;4964741;28;20050;-62
2023/03/27 06:28:41;;;;;;;10.02;4.30;;;;;;;;;;4965906;28;20561;-64
2023/03/27 06:31:08;;;;;;;9.45;4.45;;;;;;;;;;4966750;28;20686;-61
2023/03/27 06:33:59;;;;;;;9.68;4.28;;;;;;;;;;4962579;28;20050;-64
2023/03/27 06:36:44;;;;;;;11.73;3.83;;;;;;;;;;4967690;28;20620;-62
2023/03/27 06:39:11;;;;;;;10.07;4.43;;;;;;;;;;4967621;28;20042;-64
2023/03/27 06:41:38;;;;;;;11.32;4.18;;;;;;;;;;4968331;28;20589;-63
2023/03/27 06:44:11;;;;;;;14.80;4.75;;;;;;;;;;4969749;28;20049;-63
2023/03/27 06:47:00;;;;;;;9.63;4.13;;;;;;;;;;4968685;28;20043;-63
2023/03/27 06:49:33;;;;;;;5.70;3.35;;;;;;;;;;4967434;28;20035;-63
2023/03/27 06:52:07;;;;;;;8.07;4.15;;;;;;;;;;4969825;28;20027;-63
2023/03/27 06:54:33;;;;;;;19.25;4.93;;;;;;;;;;4970684;28;20040;-63
2023/03/27 06:57:00;;;;;;;7.75;3.90;;;;;;;;;;4969632;28;20526;-63
2023/03/27 06:59:26;;;;;;;14.52;4.53;;;;;;;;;;4968272;28;20097;-63
2023/03/27 07:01:57;;;;;;;9.85;3.97;;;;;;;;;;4969443;28;20117;-62
2023/03/27 07:04:41;;;;;;;8.15;4.30;;;;;;;;;;4970603;28;20057;-63
2023/03/27 07:07:18;;;;;;;6.97;3.70;;;;;;;;;;4966448;28;20446;-62
2023/03/27 07:09:44;;;;;;;13.65;4.60;;;;;;;;;;4969960;28;20429;-63
2023/03/27 07:12:12;;;;;;;13.02;5.18;;;;;;;;;;4966507;28;20045;-63
2023/03/27 07:14:40;;;;;;;14.30;5.05;;;;;;;;;;4969304;28;20081;-63
2023/03/27 07:17:07;;;;;;;14.18;4.57;;;;;;;;;;4964711;28;20031;-63
2023/03/27 07:19:52;;;;;;;8.65;3.60;;;;;;;;;;4969866;28;20559;-63
2023/03/27 07:22:22;;;;;;;10.20;3.65;;;;;;;;;;4970000;28;20117;-63
2023/03/27 07:24:48;;;;;;;11.38;4.20;;;;;;;;;;4968963;28;20475;-63
2023/03/27 07:27:15;;;;;;;9.82;3.97;;;;;;;;;;4969361;28;20039;-63
2023/03/27 07:29:41;;;;;;;11.18;4.30;;;;;;;;;;4968663;28;20030;-63
2023/03/27 07:32:08;;;;;;;7.13;3.58;;;;;;;;;;4966690;28;20309;-63
2023/03/27 07:34:41;;;;;;;8.88;4.53;;;;;;;;;;4984807;28;20451;-62
2023/03/27 07:37:15;;;;;;;10.68;3.42;;;;;;;;;;4970454;28;20038;-63
2023/03/27 07:40:03;;;;;;;8.10;3.60;;;;;;;;;;4968597;28;20074;-63
2023/03/27 07:42:28;;;;;;;9.02;4.32;;;;;;;;;;4972097;28;20434;-61
2023/03/27 07:45:01;;;;;;;7.95;3.40;;;;;;;;;;4968703;28;20487;-64
2023/03/27 07:47:28;;;;;;;10.88;3.25;;;;;;;;;;4967734;28;20513;-64
2023/03/27 07:49:56;;;;;;;8.93;3.67;;;;;;;;;;4964232;28;20061;-62
2023/03/27 07:52:21;;;;;;;11.98;3.60;;;;;;;;;;4969852;28;20422;-64
2023/03/27 07:54:55;;;;;;;7.15;3.65;;;;;;;;;;4968325;28;20502;-64
2023/03/27 07:57:23;;;;;;;11.45;3.95;;;;;;;;;;4969034;28;20220;-63
2023/03/27 07:59:51;;;;;;;7.50;3.08;;;;;;;;;;4968781;28;20117;-64
2023/03/27 08:02:26;;;;;;;6.57;3.60;;;;;;;;;;4984793;28;20042;-62
2023/03/27 08:04:53;;;;;;;5.45;3.30;;;;;;;;;;4984650;28;20042;-64
2023/03/27 08:07:21;;;;;;;12.57;4.20;;;;;;;;;;4967528;28;20196;-64
2023/03/27 08:09:47;;;;;;;11.30;3.83;;;;;;;;;;4968572;28;20062;-63
2023/03/27 08:12:14;;;;;;;10.70;4.10;;;;;;;;;;4968533;28;20038;-63
2023/03/27 08:14:45;;;;;;;10.30;4.28;;;;;;;;;;4968707;28;20038;-63
2023/03/27 08:17:31;;;;;;;12.05;4.32;;;;;;;;;;4967926;28;20403;-64
2023/03/27 08:19:56;;;;;;;11.18;5.75;;;;;;;;;;4963222;28;20081;-63
2023/03/27 08:22:24;;;;;;;7.95;4.40;;;;;;;;;;4966472;28;20558;-62
2023/03/27 08:25:09;;;;;;;8.88;4.97;;;;;;;;;;4968370;28;20041;-63
2023/03/27 08:27:35;;;;;;;9.15;4.18;;;;;;;;;;4984086;28;20035;-61
2023/03/27 08:30:02;;;;;;;9.13;4.22;;;;;;;;;;4968271;28;20042;-63
2023/03/27 08:32:30;;;;;;;12.18;5.18;;;;;;;;;;4967103;28;20491;-63
2023/03/27 08:34:57;;;;;;;9.90;5.18;;;;;;;;;;4968074;28;20066;-63
2023/03/27 08:37:23;;;;;;;8.93;4.70;;;;;;;;;;4968770;28;20070;-62
2023/03/27 08:40:18;;;;;;;6.55;4.40;;;;;;;;;;4969168;28;20042;-63
2023/03/27 08:42:49;;;;;;;6.25;4.40;;;;;;;;;;4966926;28;20102;-63
2023/03/27 08:45:44;;;;;;;8.25;4.65;;;;;;;;;;4967819;28;20094;-62
2023/03/27 08:48:16;;;;;;;7.78;4.35;;;;;;;;;;4966227;28;20666;-63
2023/03/27 08:50:55;;;;;;;8.80;4.78;;;;;;;;;;4967689;28;20070;-64
2023/03/27 08:53:54;;;;;;;4.95;4.43;;;;;;;;;;4966350;28;20479;-64
2023/03/27 08:56:25;;;;;;;7.70;4.60;;;;;;;;;;4962799;28;20077;-64
2023/03/27 08:58:52;;;;;;;8.70;4.60;;;;;;;;;;4962803;28;20128;-63
2023/03/27 09:01:29;;;;;;;5.65;4.53;;;;;;;;;;4965216;28;20050;-64
2023/03/27 09:04:16;;;;;;;9.52;4.38;;;;;;;;;;4965560;28;20053;-62
2023/03/27 09:06:57;;;;;;;10.55;4.47;;;;;;;;;;4963004;28;20074;-64
2023/03/27 09:09:31;;;;;;;8.52;4.45;;;;;;;;;;4980175;28;20047;-65
2023/03/27 09:12:24;;;;;;;9.23;4.90;;;;;;;;;;4962980;28;20473;-65
2023/03/27 09:15:00;;;;;;;11.00;4.60;;;;;;;;;;4945444;28;20059;-65
2023/03/27 09:17:32;;;;;;;8.85;4.97;;;;;;;;;;4965274;28;20039;-64
2023/03/27 09:20:32;;;;;;;8.10;4.30;;;;;;;;;;4963613;28;20038;-65
2023/03/27 09:23:24;;;;;;;6.78;4.50;;;;;;;;;;4965384;28;20286;-65
2023/03/27 09:26:16;;;;;;;7.70;4.10;;;;;;;;;;4966573;28;20113;-65
2023/03/27 09:29:17;;;;;;;8.07;4.88;;;;;;;;;;4964960;28;20039;-65
2023/03/27 09:31:46;;;;;;;6.43;4.20;;;;;;;;;;4965487;28;20034;-65
2023/03/27 09:34:28;;;;;;;5.55;4.72;;;;;;;;;;4962084;28;20569;-64
2023/03/27 09:36:57;;;;;;;8.75;4.65;;;;;;;;;;4965507;28;20043;-64
2023/03/27 09:39:28;;;;;;;5.65;4.30;;;;;;;;;;4963616;28;20054;-65
2023/03/27 09:42:27;;;;;;;4.03;3.65;;;;;;;;;;4962228;28;20054;-65
2023/03/27 09:45:00;;;;;;;5.95;4.63;;;;;;;;;;4964962;28;20034;-64
2023/03/27 09:47:32;;;;;;;5.25;4.20;;;;;;;;;;4964892;28;20043;-65
2023/03/27 09:50:19;;;;;;;8.13;4.45;;;;;;;;;;4964320;28;20132;-65
2023/03/27 09:53:12;;;;;;;6.82;4.10;;;;;;;;;;4963812;28;20420;-65
2023/03/27 09:55:58;;;;;;;6.68;4.57;;;;;;;;;;4980463;28;20054;-65
2023/03/27 09:58:27;;;;;;;;;;;;;;;;;;4980091;28;20042;-65
2023/03/27 10:01:19;;;;;;;6.43;4.72;;;;;;;;;;4981249;28;19925;-65
2023/03/27 10:03:52;;;;;;;9.43;4.70;;;;;;;;;;4964782;28;20023;-65
2023/03/27 10:06:35;;;;;;;6.90;3.65;;;;;;;;;;4966156;28;20039;-64
2023/03/27 10:09:26;;;;;;;7.05;3.95;;;;;;;;;;4966423;28;20039;-65
2023/03/27 10:12:06;;;;;;;4.50;4.10;;;;;;;;;;4982724;28;20035;-65
2023/03/27 10:14:42;;;;;;;6.13;4.03;;;;;;;;;;4968061;28;20117;-65
2023/03/27 10:17:25;;;;;;;5.93;3.50;;;;;;;;;;4970129;28;20039;-66
2023/03/27 10:20:07;;;;;;;5.07;3.92;;;;;;;;;;4969829;28;20039;-65
2023/03/27 10:22:38;;;;;;;6.18;3.88;;;;;;;;;;4970342;28;20097;-65
2023/03/27 10:25:15;;;;;;;7.13;3.80;;;;;;;;;;4970258;28;20042;-65
2023/03/27 10:28:15;;;;;;;5.38;4.60;;;;;;;;;;4970810;28;20093;-65
2023/03/27 10:31:07;;;;;;;6.68;4.10;;;;;;;;;;4970754;28;20059;-65
2023/03/27 10:33:53;;;;;;;11.05;4.20;;;;;;;;;;4970773;28;20510;-65
2023/03/27 10:36:39;;;;;;;7.32;4.75;;;;;;;;;;4971224;28;20038;-65
2023/03/27 10:39:13;;;;;;;5.13;4.72;;;;;;;;;;4968544;28;20038;-66
2023/03/27 10:42:08;;;;;;;7.30;5.43;;;;;;;;;;4969498;28;20479;-64
2023/03/27 10:44:37;;;;;;;9.27;4.47;;;;;;;;;;4969941;28;20038;-64
2023/03/27 10:47:04;;;;;;;5.80;4.55;;;;;;;;;;4966564;28;20383;-64
2023/03/27 10:49:50;;;;;;;7.72;4.80;;;;;;;;;;4967300;28;20495;-64
2023/03/27 10:52:56;;;;;;;5.38;4.50;;;;;;;;;;4967789;28;20043;-64
2023/03/27 10:55:50;;;;;;;5.43;4.60;;;;;;;;;;4960065;28;20090;-64
2023/03/27 10:58:34;;;;;;;5.88;5.03;;;;;;;;;;4965423;28;20464;-64
2023/03/27 11:01:10;;;;;;;7.78;4.70;;;;;;;;;;4967493;28;20525;-64
2023/03/27 11:04:09;;;;;;;6.97;4.15;;;;;;;;;;4983683;28;20518;-65
2023/03/27 11:06:47;;;;;;;9.85;4.47;;;;;;;;;;4968396;28;20426;-65
2023/03/27 11:09:47;;;;;;;6.20;4.57;;;;;;;;;;4967062;28;20161;-65
2023/03/27 11:12:13;;;;;;;4.95;4.22;;;;;;;;;;4964399;28;20293;-65
2023/03/27 11:14:57;;;;;;;6.65;4.40;;;;;;;;;;4965700;28;20121;-64
2023/03/27 11:17:31;;;;;;;6.13;4.50;;;;;;;;;;4966430;28;20459;-64
2023/03/27 11:20:28;;;;;;;7.93;4.80;;;;;;;;;;4972333;28;20055;-64
2023/03/27 11:23:30;;;;;;;10.00;5.25;;;;;;;;;;4965929;28;20128;-65
2023/03/27 11:26:39;;;;;;;7.50;4.80;;;;;;;;;;4967100;28;20406;-64
2023/03/27 11:29:12;;;;;;;7.53;4.43;;;;;;;;;;4966735;28;20043;-66
2023/03/27 11:31:50;;;;;;;6.80;4.25;;;;;;;;;;4964786;28;20042;-63
2023/03/27 11:34:51;;;;;;;4.45;4.05;;;;;;;;;;4966568;28;20043;-65
2023/03/27 11:38:02;;;;;;;6.88;4.65;;;;;;;;;;4966827;28;20050;-64
2023/03/27 11:40:41;;;;;;;7.75;4.22;;;;;;;;;;4928533;29;20445;-65
2023/03/27 11:43:12;;;;;;;5.85;4.88;;;;;;;;;;4923703;29;20242;-65
2023/03/27 11:45:48;;;;;;;5.80;4.55;;;;;;;;;;4929562;29;20138;-65
2023/03/27 11:48:56;;;;;;;5.35;4.80;;;;;;;;;;4924758;29;20071;-66
2023/03/27 11:51:37;;;;;;;5.40;4.78;;;;;;;;;;4928154;29;20074;-65
2023/03/27 11:54:22;;;;;;;5.22;4.40;;;;;;;;;;4925730;29;20594;-65
2023/03/27 11:56:59;;;;;;;4.95;4.00;;;;;;;;;;4923557;29;20575;-63
2023/03/27 12:00:10;;;;;;;4.38;3.95;;;;;;;;;;4928127;29;20031;-65
2023/03/27 12:03:06;;;;;;;7.20;4.25;;;;;;;;;;4944211;29;20043;-65
2023/03/27 12:05:57;;;;;;;6.85;4.78;;;;;;;;;;4929355;29;20761;-65
2023/03/27 12:08:51;;;;;;;7.65;4.80;;;;;;;;;;4925599;29;20559;-65
2023/03/27 12:11:18;;;;;;;6.85;4.93;;;;;;;;;;4945578;29;20070;-66
2023/03/27 12:14:23;;;;;;;9.57;5.20;;;;;;;;;;4937571;29;20507;-66
2023/03/27 12:17:14;;;;;;;4.55;4.25;;;;;;;;;;4952584;28;20134;-65
2023/03/27 12:20:16;;;;;;;5.15;4.75;;;;;;;;;;4965705;28;20085;-65
2023/03/27 12:23:10;;;;;;;5.30;4.80;;;;;;;;;;4965706;28;20090;-66
2023/03/27 12:26:23;;;;;;;5.22;4.72;;;;;;;;;;4964561;28;20038;-65
2023/03/27 12:29:01;;;;;;;6.35;4.40;;;;;;;;;;4961851;28;20082;-65
2023/03/27 12:31:47;;;;;;;4.32;4.03;;;;;;;;;;4966094;28;20583;-66
2023/03/27 12:34:13;;;;;;;5.13;4.10;;;;;;;;;;4980899;28;20051;-65
2023/03/27 12:36:44;;;;;;;6.95;4.10;;;;;;;;;;4979729;28;20042;-64
2023/03/27 12:39:17;;;;;;;5.60;4.78;;;;;;;;;;4965521;28;20038;-65
2023/03/27 12:41:44;;;;;;;7.28;4.45;;;;;;;;;;4965791;28;20520;-65
2023/03/27 12:44:27;;;;;;;7.43;4.50;;;;;;;;;;4963486;28;20478;-65
2023/03/27 12:47:14;;;;;;;4.80;4.40;;;;;;;;;;4981485;28;20042;-66
2023/03/27 12:49:56;;;;;;;4.97;4.20;;;;;;;;;;4965831;28;20049;-65
2023/03/27 12:52:27;;;;;;;4.78;4.15;;;;;;;;;;4965451;28;20093;-66
2023/03/27 12:55:16;;;;;;;4.80;3.50;;;;;;;;;;4967605;28;20046;-65
2023/03/27 12:58:09;;;;;;;5.22;4.28;;;;;;;;;;4965800;28;20162;-65
2023/03/27 13:01:01;;;;;;;6.78;4.35;;;;;;;;;;4960990;28;20585;-65
2023/03/27 13:04:37;;;;;;;4.53;4.13;;;;;;;;;;4965723;28;20388;-65
2023/03/27 13:07:22;;;;;;;5.90;4.50;;;;;;;;;;4948348;28;20101;-65
2023/03/27 13:10:32;;;;;;;5.28;3.90;;;;;;;;;;4963568;28;20046;-65
2023/03/27 13:12:58;;;;;;;5.28;3.70;;;;;;;;;;4965473;28;20033;-65
2023/03/27 13:15:59;;;;;;;5.18;4.18;;;;;;;;;;4966902;28;20062;-65
2023/03/27 13:18:54;;;;;;;4.97;3.90;;;;;;;;;;4965193;28;20081;-65
2023/03/27 13:21:51;;;;;;;7.72;4.25;;;;;;;;;;4965205;28;20046;-64
2023/03/27 13:24:42;;;;;;;6.80;3.92;;;;;;;;;;4963819;28;20039;-67
2023/03/27 13:27:24;;;;;;;3.90;3.60;;;;;;;;;;4964425;28;20134;-65
2023/03/27 13:29:51;;;;;;;5.45;3.60;;;;;;;;;;4980626;28;20150;-65
2023/03/27 13:32:33;;;;;;;3.67;3.42;;;;;;;;;;4962323;28;20418;-65
2023/03/27 13:35:20;;;;;;;5.65;3.72;;;;;;;;;;4963148;28;20050;-65
2023/03/27 13:37:49;;;;;;;6.03;4.00;;;;;;;;;;4965085;28;20376;-64
2023/03/27 13:40:26;;;;;;;4.18;3.72;;;;;;;;;;4964800;28;20054;-64
2023/03/27 13:43:20;;;;;;;5.20;3.80;;;;;;;;;;4963299;28;20129;-65
2023/03/27 13:45:57;;;;;;;4.80;3.72;;;;;;;;;;4980453;28;20147;-64
2023/03/27 13:49:06;;;;;;;5.22;3.90;;;;;;;;;;4969145;28;20039;-65
2023/03/27 13:52:05;;;;;;;6.57;4.00;;;;;;;;;;4967976;28;20423;-65
2023/03/27 13:55:03;;;;;;;6.97;4.38;;;;;;;;;;4968866;28;20045;-65
2023/03/27 13:58:14;;;;;;;4.80;4.40;;;;;;;;;;4967829;28;20542;-65
2023/03/27 14:01:12;;;;;;;5.07;4.28;;;;;;;;;;4982626;28;20122;-65
2023/03/27 14:03:56;;;;;;;4.30;3.92;;;;;;;;;;4970345;28;20037;-64
2023/03/27 14:07:06;;;;;;;6.32;4.35;;;;;;;;;;4969105;28;20093;-64
2023/03/27 14:10:12;;;;;;;4.88;3.90;;;;;;;;;;4969105;28;20027;-66
2023/03/27 14:13:08;;;;;;;8.25;4.47;;;;;;;;;;4975790;28;20418;-65
2023/03/27 14:15:57;;;;;;;7.03;5.00;;;;;;;;;;4985207;28;20030;-64
2023/03/27 14:18:58;;;;;;;9.02;4.65;;;;;;;;;;4986293;28;20042;-65
2023/03/27 14:21:27;;;;;;;8.57;4.60;;;;;;;;;;4986383;28;20070;-64
2023/03/27 14:24:09;;;;;;;8.95;4.88;;;;;;;;;;4970545;28;20031;-64
2023/03/27 14:26:44;;;;;;;10.60;4.65;;;;;;;;;;4970117;28;20039;-65
2023/03/27 14:29:14;;;;;;;5.10;4.60;;;;;;;;;;4968574;28;20035;-64
2023/03/27 14:31:43;;;;;;;8.77;4.55;;;;;;;;;;4970028;28;20582;-65
2023/03/27 14:34:33;;;;;;;8.93;4.13;;;;;;;;;;4970987;28;20035;-65
2023/03/27 14:37:29;;;;;;;5.65;4.40;;;;;;;;;;4985136;28;20053;-64
2023/03/27 14:40:01;;;;;;;4.75;4.25;;;;;;;;;;4965134;28;20034;-64
2023/03/27 14:42:45;;;;;;;4.55;4.05;;;;;;;;;;4968020;28;20109;-64
2023/03/27 14:45:21;;;;;;;4.95;4.35;;;;;;;;;;4971400;28;20034;-64
2023/03/27 14:48:02;;;;;;;5.65;4.05;;;;;;;;;;4968723;28;20046;-63
2023/03/27 14:50:37;;;;;;;4.32;3.92;;;;;;;;;;4985967;28;20046;-65
2023/03/27 14:53:09;;;;;;;7.80;4.20;;;;;;;;;;4986199;28;20122;-65
2023/03/27 14:56:11;;;;;;;6.30;4.30;;;;;;;;;;4967788;28;20082;-64
2023/03/27 14:58:56;;;;;;;6.95;4.45;;;;;;;;;;4969145;28;20135;-64
2023/03/27 15:01:22;;;;;;;4.97;3.92;;;;;;;;;;4970096;28;20061;-65
2023/03/27 15:03:52;;;;;;;6.18;4.15;;;;;;;;;;4970272;28;20114;-64
2023/03/27 15:06:25;;;;;;;4.63;3.80;;;;;;;;;;4968746;28;20035;-62
2023/03/27 15:09:03;;;;;;;5.65;4.00;;;;;;;;;;4969112;28;20041;-64
2023/03/27 15:12:07;;;;;;;4.10;3.60;;;;;;;;;;4962122;28;20050;-65
2023/03/27 15:14:34;;;;;;;5.22;3.95;;;;;;;;;;4969373;28;20050;-65
2023/03/27 15:17:06;;;;;;;4.50;3.80;;;;;;;;;;4969102;28;20377;-64
2023/03/27 15:19:42;;;;;;;3.65;3.42;;;;;;;;;;4966925;28;20034;-65
2023/03/27 15:22:26;;;;;;;4.28;3.88;;;;;;;;;;4965960;28;20027;-64
2023/03/27 15:25:16;;;;;;;4.30;3.80;;;;;;;;;;4970176;28;20034;-64
2023/03/27 15:27:51;;;;;;;6.13;3.88;;;;;;;;;;4967545;28;20070;-64
2023/03/27 15:30:29;;;;;;;5.13;3.83;;;;;;;;;;4967780;28;20387;-64
2023/03/27 15:33:00;;;;;;;7.45;3.95;;;;;;;;;;4970244;28;20061;-64
2023/03/27 15:35:37;;;;;;;4.75;3.55;;;;;;;;;;4970276;28;20117;-64
2023/03/27 15:38:05;;;;;;;4.25;3.85;;;;;;;;;;4966939;28;20311;-62
2023/03/27 15:40:32;;;;;;;4.53;3.70;;;;;;;;;;4970299;28;20039;-64